Terminal Aerodrome Forecast
Issued by NWS

Home | Current Version | Previous Version | Text Only | Print | Product List | Glossary Off
Versions: 1 2 3 4 5 6 7 8 9 10 11 12 13 14 15

000
FTUS43 KLSX 301700
TAFUIN
TAF
KUIN 301720Z 3018/0118 10010KT 6SM BR SCT006 BKN015
     FM302000 10008KT P6SM SCT025 SCT250
     FM011600 16010KT P6SM SCT050 BKN250=

USA.gov is the U.S. government's official web portal to all federal, state and local government web resources and services.